General Aviation Weather

Text Reports

Enter one or more of the following location identifiers separated by a space:

Zip Code, Four-Character ICAO or Three-Character IATA airport codes.

METAR - Aviation Routine Weather Report
K04V - Saguache, Colorado
Updated at 12:35 PM GMT on August 20, 2014 (6:35 AM MDT):
METAR K04V 201235Z AUTO 34006KT 10SM SCT075 12/08 A3017 RMK AO2 PWINO
TAF - Terminal Area Forecast
K04V - Saguache, Colorado
Updated at 12:35 PM GMT on August 20, 2014 (6:35 AM MDT):
No TAF is currently available for this location.
Decoded:
No decoded TAF is available.
PIREP - Pilot Weather Report
K04V - Saguache, Colorado
Updated at 12:35 PM GMT on August 20, 2014 (6:35 AM MDT):
No PIREP is currently available for this location.
AIRMET - Airmens Meteorological Information
K04V - Saguache, Colorado
Updated at 12:35 PM GMT on August 20, 2014 (6:35 AM MDT):
No AIRMET is currently available for this location.
SIGMET - Significant Meteorological Information
K04V - Saguache, Colorado
Updated at 12:35 PM GMT on August 20, 2014 (6:35 AM MDT):
No SIGMET is currently available for this location.
NOTAM - Notice to Airmen
K04V - Saguache, Colorado
Updated at 12:35 PM GMT on August 20, 2014 (6:35 AM MDT):
No NOTAM is currently available for this location.
Forecast Area
K04V - Saguache, Colorado
Updated at 12:35 PM GMT on August 20, 2014 (6:35 AM MDT):
No NOTAM is currently available for this location.
Aviation Weather Maps